createdAt,value
2023-08-12T00:02:33.470Z,1.7
2023-08-12T00:05:30.054Z,2.42
2023-08-12T00:08:25.566Z,2.0799999999999996
2023-08-12T00:11:21.177Z,2.34
2023-08-12T00:14:16.673Z,2.06
2023-08-12T00:17:12.491Z,1.9
2023-08-12T00:20:09.790Z,1.7399999999999998
2023-08-12T00:23:05.365Z,2.2399999999999998
2023-08-12T00:26:00.952Z,2.02
2023-08-12T00:28:56.477Z,2.0599999999999996
2023-08-12T00:31:52.051Z,2.2
2023-08-12T00:34:47.618Z,2.62
2023-08-12T00:37:44.200Z,2.34
2023-08-12T00:40:40.729Z,2.7800000000000002
2023-08-12T00:43:36.291Z,2.48
2023-08-12T00:46:31.883Z,2.04
2023-08-12T00:49:28.417Z,2.5200000000000005
2023-08-12T00:52:24.997Z,2.38
2023-08-12T00:55:21.540Z,2.2
2023-08-12T00:58:18.084Z,2.36
2023-08-12T01:01:15.721Z,2.4200000000000004
2023-08-12T01:04:11.209Z,2.52
2023-08-12T01:07:07.755Z,2.2600000000000002
2023-08-12T01:10:04.355Z,2.5799999999999996
2023-08-12T01:13:07.865Z,2.7
2023-08-12T01:16:06.515Z,2.54
2023-08-12T01:19:03.005Z,2.7800000000000002
2023-08-12T01:22:02.512Z,2.6399999999999997
2023-08-12T01:24:58.147Z,2.8200000000000003
2023-08-12T01:27:53.647Z,2.38
2023-08-12T01:30:56.255Z,2.44
2023-08-12T01:34:01.715Z,2.7
2023-08-12T01:37:00.353Z,2.88
2023-08-12T01:39:59.816Z,2.7
2023-08-12T01:42:56.404Z,2.62
2023-08-12T01:45:51.968Z,2.8200000000000003
2023-08-12T01:48:47.525Z,2.7600000000000007
2023-08-12T01:51:44.094Z,2.82
2023-08-12T01:54:39.638Z,2.42
2023-08-12T01:57:38.198Z,2.6
2023-08-12T02:00:34.740Z,3.7399999999999998
2023-08-12T02:03:30.399Z,2.94
2023-08-12T02:06:25.873Z,2.5599999999999996
2023-08-12T02:09:22.476Z,2.82
2023-08-12T02:12:17.989Z,2.2800000000000002
2023-08-12T02:15:13.561Z,2.72
2023-08-12T02:18:09.143Z,2.8000000000000003
2023-08-12T02:21:04.660Z,3.12
2023-08-12T02:24:01.279Z,2.4799999999999995
2023-08-12T02:26:56.819Z,2.8000000000000003
2023-08-12T02:29:52.361Z,2.6799999999999997
2023-08-12T02:32:47.925Z,2.6
2023-08-12T02:35:43.476Z,2.6
2023-08-12T02:38:39.058Z,2.82
2023-08-12T02:41:34.657Z,3.02
2023-08-12T02:44:30.178Z,2.8600000000000003
2023-08-12T02:47:25.807Z,2.66
2023-08-12T02:50:21.298Z,2.8600000000000003
2023-08-12T02:53:18.933Z,2.3600000000000003
2023-08-12T02:56:14.417Z,2.7400000000000007
2023-08-12T02:59:09.997Z,2.7
2023-08-12T03:02:06.623Z,2.8400000000000003
2023-08-12T03:05:02.133Z,2.8000000000000003
2023-08-12T03:08:01.668Z,2.52
2023-08-12T03:11:01.220Z,3.04
2023-08-12T03:13:56.836Z,2.8400000000000003
2023-08-12T03:16:52.323Z,2.88
2023-08-12T03:19:47.947Z,2.7600000000000002
2023-08-12T03:22:43.462Z,3.04
2023-08-12T03:25:40.032Z,2.9
2023-08-12T03:28:36.595Z,2.6799999999999997
2023-08-12T03:31:32.244Z,2.9799999999999995
2023-08-12T03:34:28.690Z,2.7800000000000002
2023-08-12T03:37:24.261Z,2.9
2023-08-12T03:40:19.830Z,2.48
2023-08-12T03:43:15.397Z,2.96
2023-08-12T03:46:12.969Z,3.22
2023-08-12T03:49:08.487Z,2.38
2023-08-12T03:52:05.071Z,3
2023-08-12T03:55:00.632Z,2.7800000000000002
2023-08-12T03:57:56.176Z,3.0599999999999996
2023-08-12T04:00:51.783Z,3.1800000000000006
2023-08-12T04:03:48.337Z,2.6199999999999997
2023-08-12T04:06:48.852Z,3.1
2023-08-12T04:09:44.423Z,2.6199999999999997
2023-08-12T04:12:40.932Z,3.04
2023-08-12T04:15:37.538Z,3.12
2023-08-12T04:18:33.123Z,2.98
2023-08-12T04:21:28.683Z,3.02
2023-08-12T04:24:24.229Z,3.04
2023-08-12T04:27:19.798Z,2.7800000000000002
2023-08-12T04:30:16.578Z,2.6199999999999997
2023-08-12T04:33:12.929Z,2.94
2023-08-12T04:36:08.507Z,3.22
2023-08-12T04:39:05.041Z,3.1799999999999997
2023-08-12T04:42:00.579Z,3.3200000000000003
2023-08-12T04:44:56.137Z,3.2800000000000002
2023-08-12T04:47:51.698Z,3.54
2023-08-12T04:50:47.241Z,2.74
2023-08-12T04:53:47.804Z,3.3599999999999994
2023-08-12T04:56:43.367Z,3.4800000000000004
2023-08-12T04:59:41.936Z,3.4799999999999995
2023-08-12T05:02:37.535Z,3.38
2023-08-12T05:05:34.042Z,4.16
2023-08-12T05:08:29.635Z,4.1
2023-08-12T05:11:26.169Z,3.7599999999999993
2023-08-12T05:14:21.743Z,4.3
2023-08-12T05:17:17.257Z,4.2
2023-08-12T05:20:12.896Z,4.14
2023-08-12T05:23:08.432Z,3.96
2023-08-12T05:26:03.958Z,3.44
2023-08-12T05:28:59.552Z,3.7
2023-08-12T05:31:55.168Z,3.2600000000000002
2023-08-12T05:34:51.707Z,3.9200000000000004
2023-08-12T05:37:47.251Z,3.38
2023-08-12T05:40:43.792Z,3.0799999999999996
2023-08-12T05:43:40.357Z,3.7399999999999998
2023-08-12T05:46:35.957Z,2.94
2023-08-12T05:49:32.520Z,3.2400000000000007
2023-08-12T05:52:28.079Z,2.54
2023-08-12T05:55:23.551Z,3.6
2023-08-12T05:58:19.150Z,3.1399999999999997
2023-08-12T06:01:17.701Z,3.4
2023-08-12T06:04:13.292Z,4.0600000000000005
2023-08-12T06:07:09.816Z,3.8
2023-08-12T06:10:06.381Z,4.1
2023-08-12T06:13:01.956Z,3.6399999999999997
2023-08-12T06:15:57.512Z,2.8200000000000003
2023-08-12T06:18:53.042Z,2.5599999999999996
2023-08-12T06:21:48.617Z,2.56
2023-08-12T06:24:45.220Z,2.92
2023-08-12T06:27:40.761Z,1.92
2023-08-12T06:30:38.325Z,2.16
2023-08-12T06:33:33.886Z,2.3
2023-08-12T06:36:29.418Z,2.5200000000000005
2023-08-12T06:39:25.996Z,2.5
2023-08-12T06:42:23.541Z,2.0200000000000005
2023-08-12T06:45:19.086Z,2.1
2023-08-12T06:48:14.777Z,2.66
2023-08-12T06:51:11.247Z,2.02
2023-08-12T06:54:06.798Z,1.6800000000000002
2023-08-12T06:57:02.333Z,2.28
2023-08-12T06:59:58.910Z,2.2800000000000002
2023-08-12T07:02:55.525Z,2.32
2023-08-12T07:05:51.021Z,2.54
2023-08-12T07:08:46.636Z,2.1199999999999997
2023-08-12T07:11:42.173Z,1.56
2023-08-12T07:14:37.768Z,2.16
2023-08-12T07:17:34.307Z,2.74
2023-08-12T07:20:29.841Z,2.22
2023-08-12T07:23:25.416Z,2.2600000000000002
2023-08-12T07:26:20.991Z,2.16
2023-08-12T07:29:16.546Z,1.7
2023-08-12T07:32:13.473Z,2.1199999999999997
2023-08-12T07:35:10.678Z,1.98
2023-08-12T07:38:06.197Z,2.06
2023-08-12T07:41:02.759Z,1.98
2023-08-12T07:43:58.320Z,1.92
2023-08-12T07:46:54.911Z,1.72
2023-08-12T07:49:50.458Z,1.98
2023-08-12T07:52:46.014Z,1.86
2023-08-12T07:55:41.586Z,1.94
2023-08-12T07:58:37.802Z,1.9600000000000002
2023-08-12T08:01:34.264Z,1.7
2023-08-12T08:04:31.344Z,1.7
2023-08-12T08:07:26.842Z,1.7600000000000002
2023-08-12T08:10:24.382Z,1.5399999999999998
2023-08-12T08:13:20.954Z,1.7
2023-08-12T08:16:16.660Z,1.9
2023-08-12T08:19:13.466Z,1.78
2023-08-12T08:22:10.998Z,2.06
2023-08-12T08:25:08.179Z,1.64
2023-08-12T08:28:04.761Z,1.6400000000000001
2023-08-12T08:31:00.297Z,1.7
2023-08-12T08:33:55.851Z,2.06
2023-08-12T08:36:52.710Z,1.78
2023-08-12T08:39:47.964Z,1.78
2023-08-12T08:42:46.522Z,2
2023-08-12T08:45:46.043Z,1.52
2023-08-12T08:48:42.634Z,1.6400000000000001
2023-08-12T08:51:39.188Z,1.46
2023-08-12T08:54:36.774Z,1.6600000000000001
2023-08-12T08:57:41.919Z,1.28
2023-08-12T09:00:33.868Z,1.6800000000000002
2023-08-12T09:03:30.401Z,1.8400000000000003
2023-08-12T09:06:29.966Z,1.6
2023-08-12T09:09:26.521Z,1.3800000000000001
2023-08-12T09:12:25.045Z,1.48
2023-08-12T09:15:21.618Z,1.72
2023-08-12T09:18:19.190Z,1.6600000000000001
2023-08-12T09:21:16.773Z,1.3800000000000001
2023-08-12T09:24:14.304Z,1.52
2023-08-12T09:27:10.883Z,1.6400000000000001
2023-08-12T09:30:08.464Z,1.7600000000000002
2023-08-12T09:33:08.004Z,1.98
2023-08-12T09:36:06.585Z,1.5399999999999998
2023-08-12T09:39:07.093Z,1.8199999999999998
2023-08-12T09:42:03.635Z,1.56
2023-08-12T09:44:59.195Z,1.8199999999999998
2023-08-12T09:47:58.891Z,1.72
2023-08-12T09:50:55.336Z,1.9600000000000002
2023-08-12T09:53:54.877Z,1.7600000000000002
2023-08-12T09:56:55.459Z,1.5
2023-08-12T09:59:55.022Z,1.5399999999999998
2023-08-12T10:02:53.627Z,2.7
2023-08-12T10:05:53.076Z,1.52
2023-08-12T10:08:51.641Z,1.5
2023-08-12T10:11:48.211Z,1.6
2023-08-12T10:14:45.741Z,1.7
2023-08-12T10:17:44.163Z,1.6
2023-08-12T10:20:44.942Z,1.8
2023-08-12T10:23:47.682Z,1.6
2023-08-12T10:26:46.008Z,2.1800000000000006
2023-08-12T10:29:43.481Z,2.1
2023-08-12T10:32:42.092Z,1.8
2023-08-12T10:35:43.612Z,1.58
2023-08-12T10:38:39.201Z,1.58
2023-08-12T10:41:45.676Z,1.3199999999999998
2023-08-12T10:44:46.214Z,1.5
2023-08-12T10:47:44.893Z,1.7600000000000002
2023-08-12T10:50:46.387Z,1.8
2023-08-12T10:53:49.950Z,1.5
2023-08-12T10:56:57.452Z,1.44
2023-08-12T10:59:59.565Z,1.5399999999999998
2023-08-12T11:03:00.542Z,1.5399999999999998
2023-08-12T11:05:57.097Z,1.6
2023-08-12T11:08:57.652Z,1.8199999999999998
2023-08-12T11:11:58.184Z,1.7399999999999998
2023-08-12T11:14:58.764Z,1.7399999999999998
2023-08-12T11:17:59.327Z,1.4
2023-08-12T11:20:55.861Z,1.8199999999999998
2023-08-12T11:23:55.371Z,1.5799999999999998
2023-08-12T11:26:51.954Z,1.8400000000000003
2023-08-12T11:29:50.513Z,1.56
2023-08-12T11:32:47.119Z,1.5
2023-08-12T11:35:44.624Z,1.6
2023-08-12T11:38:40.161Z,1.78
2023-08-12T11:41:36.757Z,1.6600000000000001
2023-08-12T11:44:32.323Z,1.98
2023-08-12T11:47:27.868Z,1.6400000000000001
2023-08-12T11:50:25.431Z,1.6800000000000002
2023-08-12T11:53:22.991Z,1.78
2023-08-12T11:56:21.548Z,1.5
2023-08-12T11:59:22.057Z,1.72
2023-08-12T12:02:21.611Z,1.7599999999999998
2023-08-12T12:05:18.580Z,1.48
2023-08-12T12:08:16.719Z,1.7600000000000002
2023-08-12T12:11:12.341Z,1.8199999999999998
2023-08-12T12:14:08.829Z,1.1600000000000001
2023-08-12T12:17:13.500Z,1.44
2023-08-12T12:20:12.020Z,1.42
2023-08-12T12:23:07.556Z,1.6800000000000002
2023-08-12T12:26:04.077Z,1.5599999999999998
2023-08-12T12:28:59.666Z,1.8199999999999998
2023-08-12T12:31:56.194Z,1.6800000000000002
2023-08-12T12:34:54.763Z,1.7399999999999998
2023-08-12T12:37:50.922Z,1.52
2023-08-12T12:40:46.893Z,1.7
2023-08-12T12:43:43.425Z,1.6199999999999999
2023-08-12T12:46:40.013Z,1.3400000000000003
2023-08-12T12:49:36.542Z,1.6600000000000001
2023-08-12T12:52:32.125Z,1.94
2023-08-12T12:55:28.765Z,1.44
2023-08-12T12:58:26.243Z,1.6800000000000002
2023-08-12T13:01:21.816Z,1.6600000000000001
2023-08-12T13:04:17.355Z,1.6600000000000001
2023-08-12T13:07:12.934Z,1.6600000000000001
2023-08-12T13:10:09.512Z,1.44
2023-08-12T13:13:06.051Z,1.7600000000000002
2023-08-12T13:16:01.695Z,1.26
2023-08-12T13:18:59.168Z,1.8400000000000003
2023-08-12T13:21:55.712Z,1.6600000000000001
2023-08-12T13:24:53.281Z,1.8
2023-08-12T13:27:49.858Z,1.44
2023-08-12T13:30:45.426Z,1.3199999999999998
2023-08-12T13:33:41.003Z,1.1800000000000002
2023-08-12T13:36:37.567Z,1.52
2023-08-12T13:39:33.113Z,1.6199999999999999
2023-08-12T13:42:29.616Z,1.6800000000000002
2023-08-12T13:45:25.282Z,1.02
2023-08-12T13:48:20.895Z,1.6800000000000002
2023-08-12T13:51:16.340Z,1.3199999999999998
2023-08-12T13:54:11.875Z,1.6600000000000001
2023-08-12T13:57:07.472Z,1.5
2023-08-12T14:00:07.019Z,1.48
2023-08-12T14:03:02.571Z,1.6600000000000001
2023-08-12T14:06:01.258Z,1.44
2023-08-12T14:08:56.698Z,1.58
2023-08-12T14:11:53.237Z,1.5399999999999998
2023-08-12T14:14:49.786Z,1.44
2023-08-12T14:17:47.392Z,1.5399999999999998
2023-08-12T14:20:43.929Z,1.44
2023-08-12T14:23:41.449Z,1.58
2023-08-12T14:26:37.039Z,1.22
2023-08-12T14:29:32.593Z,1.5
2023-08-12T14:32:28.164Z,1.3400000000000003
2023-08-12T14:35:24.731Z,1.72
2023-08-12T14:38:22.281Z,1.8199999999999998
2023-08-12T14:41:19.880Z,1.3800000000000001
2023-08-12T14:44:16.406Z,1.86
2023-08-12T14:47:12.340Z,1.3800000000000001
2023-08-12T14:50:09.562Z,1.2
2023-08-12T14:53:05.065Z,1.52
2023-08-12T14:56:01.643Z,1.4
2023-08-12T14:58:57.192Z,1.4
2023-08-12T15:01:53.846Z,1.72
2023-08-12T15:04:49.301Z,1.5399999999999998
2023-08-12T15:07:46.961Z,2.64
2023-08-12T15:10:42.464Z,1.3800000000000001
2023-08-12T15:13:38.992Z,1.8399999999999999
2023-08-12T15:16:34.548Z,1.2799999999999998
2023-08-12T15:19:30.123Z,1.44
2023-08-12T15:22:27.703Z,1.5599999999999998
2023-08-12T15:25:26.247Z,1.58
2023-08-12T15:28:22.781Z,1.52
2023-08-12T15:31:20.931Z,1.7
2023-08-12T15:34:15.882Z,1.42
2023-08-12T15:37:13.675Z,1.6600000000000001
2023-08-12T15:40:10.060Z,1.4
2023-08-12T15:43:06.582Z,1.28
2023-08-12T15:46:02.182Z,1.6800000000000002
2023-08-12T15:48:57.718Z,1.4
2023-08-12T15:51:53.224Z,1.44
2023-08-12T15:54:49.869Z,1.16
2023-08-12T15:57:45.378Z,1.7
2023-08-12T16:00:44.001Z,1.58
2023-08-12T16:03:41.602Z,1.3800000000000001
2023-08-12T16:06:38.096Z,1.5
2023-08-12T16:09:34.732Z,1.46
2023-08-12T16:12:30.236Z,1.5599999999999998
2023-08-12T16:15:25.761Z,1.1800000000000002
2023-08-12T16:18:21.328Z,1.46
2023-08-12T16:21:16.941Z,1.46
2023-08-12T16:24:12.460Z,2.2199999999999998
2023-08-12T16:27:08.000Z,1.52
2023-08-12T16:30:04.550Z,1.3199999999999998
2023-08-12T16:33:01.158Z,1.5599999999999998
2023-08-12T16:35:56.662Z,1.3400000000000003
2023-08-12T16:38:53.250Z,1.6
2023-08-12T16:41:49.782Z,1.5399999999999998
2023-08-12T16:44:47.108Z,1.6
2023-08-12T16:47:42.926Z,1.6199999999999999
2023-08-12T16:50:39.480Z,1.8800000000000001
2023-08-12T16:53:35.030Z,2.0200000000000005
2023-08-12T16:56:30.680Z,1.7
2023-08-12T16:59:27.147Z,1.7
2023-08-12T17:02:22.922Z,1.52
2023-08-12T17:05:19.280Z,1.6400000000000001
2023-08-12T17:08:14.877Z,1.78
2023-08-12T17:11:11.393Z,1.3399999999999999
2023-08-12T17:14:09.972Z,1.7600000000000002
2023-08-12T17:17:06.498Z,1.72
2023-08-12T17:20:04.042Z,1.5399999999999998
2023-08-12T17:22:59.661Z,1.8800000000000001
2023-08-12T17:25:55.165Z,2.12
2023-08-12T17:28:51.755Z,1.6800000000000002
2023-08-12T17:31:50.307Z,2.22
2023-08-12T17:34:45.871Z,1.56
2023-08-12T17:37:41.480Z,1.8800000000000001
2023-08-12T17:40:38.579Z,1.9600000000000002
2023-08-12T17:43:34.563Z,2.0799999999999996
2023-08-12T17:46:30.158Z,2.0599999999999996
2023-08-12T17:49:25.653Z,2.2
2023-08-12T17:52:21.212Z,2.1199999999999997
2023-08-12T17:55:16.803Z,2.1199999999999997
2023-08-12T17:58:12.377Z,1.8400000000000003
2023-08-12T18:01:07.947Z,2.22
2023-08-12T18:04:04.490Z,2.04
2023-08-12T18:07:00.042Z,1.9
2023-08-12T18:09:55.588Z,2.56
2023-08-12T18:12:51.146Z,2.9
2023-08-12T18:15:46.830Z,2.5799999999999996
2023-08-12T18:18:43.133Z,2.2800000000000002
2023-08-12T18:21:40.854Z,2.8600000000000003
2023-08-12T18:24:37.402Z,2.3400000000000003
2023-08-12T18:27:32.961Z,2.5799999999999996
2023-08-12T18:30:30.693Z,2.6799999999999997
2023-08-12T18:33:26.133Z,2.34
2023-08-12T18:36:21.648Z,2.86
2023-08-12T18:39:18.255Z,2.9200000000000004
2023-08-12T18:42:14.043Z,2.7400000000000007
2023-08-12T18:45:10.529Z,2.48
2023-08-12T18:48:13.948Z,2.5799999999999996
2023-08-12T18:51:09.423Z,2.5599999999999996
2023-08-12T18:54:06.993Z,2.22
2023-08-12T18:57:03.565Z,2.2600000000000002
2023-08-12T19:00:01.099Z,2.5
2023-08-12T19:03:06.694Z,2.5599999999999996
2023-08-12T19:06:03.212Z,2.28
2023-08-12T19:08:59.749Z,3
2023-08-12T19:11:56.292Z,3.7
2023-08-12T19:14:53.866Z,4.04
2023-08-12T19:17:49.527Z,13.419999999999998
2023-08-12T19:20:46.042Z,19.660000000000004
2023-08-12T19:23:41.573Z,11.22
2023-08-12T19:26:38.095Z,8.499999999999998
2023-08-12T19:29:34.650Z,7.220000000000001
2023-08-12T19:32:30.259Z,6
2023-08-12T19:35:27.815Z,6.0600000000000005
2023-08-12T19:38:26.364Z,7.42
2023-08-12T19:41:21.912Z,13.819999999999999
2023-08-12T19:44:17.474Z,15.6
2023-08-12T19:47:13.053Z,13.940000000000001
2023-08-12T19:50:10.600Z,13.719999999999999
2023-08-12T19:53:07.145Z,11.76
2023-08-12T19:56:03.712Z,10.36
2023-08-12T19:58:59.268Z,10.139999999999999
2023-08-12T20:01:57.847Z,9.76
2023-08-12T20:04:53.386Z,9.32
2023-08-12T20:07:49.949Z,7.26
2023-08-12T20:10:47.470Z,12.16
2023-08-12T20:13:45.124Z,7.06
2023-08-12T20:16:40.665Z,8.42
2023-08-12T20:19:36.180Z,6.04
2023-08-12T20:22:32.764Z,4.359999999999999
2023-08-12T20:25:29.307Z,8.459999999999999
2023-08-12T20:28:27.867Z,7.06
2023-08-12T20:31:24.499Z,8
2023-08-12T20:34:19.969Z,10.48
2023-08-12T20:37:16.696Z,7.9
2023-08-12T20:40:14.122Z,6.4799999999999995
2023-08-12T20:43:10.650Z,6.68
2023-08-12T20:46:06.281Z,7.1
2023-08-12T20:49:04.783Z,6.38
2023-08-12T20:52:00.344Z,6.24
2023-08-12T20:54:55.924Z,6.1
2023-08-12T20:57:51.465Z,5.92
2023-08-12T21:00:47.022Z,5.58
2023-08-12T21:03:42.650Z,5.279999999999999
2023-08-12T21:06:41.134Z,5.119999999999999
2023-08-12T21:09:38.337Z,5.779999999999999
2023-08-12T21:12:36.251Z,4.92
2023-08-12T21:15:31.827Z,5.220000000000001
2023-08-12T21:18:28.417Z,5.2
2023-08-12T21:21:24.927Z,5.1
2023-08-12T21:24:21.500Z,4.4799999999999995
2023-08-12T21:27:18.660Z,5.28
2023-08-12T21:30:13.681Z,5.46
2023-08-12T21:33:13.155Z,5.1
2023-08-12T21:36:09.776Z,4.32
2023-08-12T21:39:06.356Z,4.859999999999999
2023-08-12T21:42:02.833Z,4.659999999999999
2023-08-12T21:44:58.422Z,4.58
2023-08-12T21:47:55.029Z,4.4399999999999995
2023-08-12T21:50:51.522Z,3.8
2023-08-12T21:53:47.119Z,4.6
2023-08-12T21:56:42.633Z,4.34
2023-08-12T21:59:39.222Z,4.220000000000001
2023-08-12T22:02:34.802Z,4.8
2023-08-12T22:05:31.360Z,4.3
2023-08-12T22:08:28.877Z,3.94
2023-08-12T22:11:27.460Z,4.24
2023-08-12T22:14:22.992Z,4.040000000000001
2023-08-12T22:17:18.599Z,4.6
2023-08-12T22:20:14.099Z,4.2
2023-08-12T22:23:09.682Z,4.619999999999999
2023-08-12T22:26:05.234Z,4.4
2023-08-12T22:29:00.840Z,3.78
2023-08-12T22:31:57.378Z,3.7
2023-08-12T22:34:53.941Z,4.44
2023-08-12T22:37:49.546Z,4.4
2023-08-12T22:40:45.041Z,4.6
2023-08-12T22:43:40.581Z,4.619999999999999
2023-08-12T22:46:36.246Z,3.9200000000000004
2023-08-12T22:49:31.808Z,3.5799999999999996
2023-08-12T22:52:27.297Z,4.62
2023-08-12T22:55:22.888Z,3.88
2023-08-12T22:58:18.401Z,4.58
2023-08-12T23:01:14.057Z,4.16
2023-08-12T23:04:10.598Z,4.3
2023-08-12T23:07:07.126Z,3.7
2023-08-12T23:10:03.652Z,3.94
2023-08-12T23:12:59.221Z,3.78
2023-08-12T23:15:54.790Z,3.54
2023-08-12T23:18:50.330Z,3.2
2023-08-12T23:21:45.908Z,3.8400000000000007
2023-08-12T23:24:42.467Z,4.04
2023-08-12T23:27:38.023Z,4.24
2023-08-12T23:30:34.621Z,3.9799999999999995
2023-08-12T23:33:30.170Z,3.9799999999999995
2023-08-12T23:36:25.717Z,3.3400000000000007
2023-08-12T23:39:22.304Z,3.38
2023-08-12T23:42:17.836Z,3.8
2023-08-12T23:45:13.392Z,3.8400000000000007
2023-08-12T23:48:11.973Z,3.1399999999999997
2023-08-12T23:51:12.507Z,3.6399999999999997
2023-08-12T23:54:09.061Z,3.72
2023-08-12T23:57:05.619Z,3.46
